Time;durP1;ratioP1;P1;durP2;ratioP2;P2;SDS_P1;SDS_P2;PMS_P1;PMS_P2;Temp;Humidity;BMP_temperature;BMP_pressure;BME280_temperature;BME280_humidity;BME280_pressure;Samples;Min_cycle;Max_cycle;Signal;HPM_P1;HPM_P2
2021/09/03 00:00:00;;;;;;;29.98;24.55;;;;;;;13.75;100.00;101935.84;4997282;28;20064;-84
2021/09/03 00:02:26;;;;;;;32.08;24.25;;;;;;;13.75;100.00;101935.84;4995770;28;20404;-83
2021/09/03 00:04:51;;;;;;;28.77;23.38;;;;;;;13.70;100.00;101938.16;4980676;28;20049;-85
2021/09/03 00:07:16;;;;;;;35.10;24.88;;;;;;;13.67;100.00;101938.47;4995784;28;20046;-82
2021/09/03 00:09:42;;;;;;;29.05;22.90;;;;;;;13.61;100.00;101944.50;5005975;28;20051;-83
2021/09/03 00:12:08;;;;;;;31.52;23.73;;;;;;;13.61;100.00;101939.09;4998688;28;20562;-83
2021/09/03 00:14:34;;;;;;;30.38;23.95;;;;;;;13.61;100.00;101938.22;4980631;28;20052;-83
2021/09/03 00:17:01;;;;;;;33.97;25.58;;;;;;;13.60;100.00;101934.69;5014715;28;20038;-83
2021/09/03 00:19:27;;;;;;;35.90;25.85;;;;;;;13.61;100.00;101933.69;4999145;28;20551;-84
2021/09/03 00:21:52;;;;;;;32.97;25.73;;;;;;;13.59;100.00;101930.31;5010107;28;20034;-81
2021/09/03 00:24:19;;;;;;;33.08;24.17;;;;;;;13.53;100.00;101925.53;5000078;28;20228;-83
2021/09/03 00:26:44;;;;;;;30.02;23.88;;;;;;;13.50;100.00;101929.38;5016939;28;20034;-83
2021/09/03 00:29:10;;;;;;;33.08;25.30;;;;;;;13.52;100.00;101932.78;4987499;28;20376;-83
2021/09/03 00:31:35;;;;;;;33.15;25.05;;;;;;;13.50;100.00;101932.09;5005518;28;20048;-82
2021/09/03 00:34:01;;;;;;;34.70;26.33;;;;;;;13.45;100.00;101928.16;4983012;28;20070;-83
2021/09/03 00:36:26;;;;;;;32.25;25.98;;;;;;;13.43;100.00;101936.38;5006371;28;20085;-82
2021/09/03 00:38:51;;;;;;;32.95;26.95;;;;;;;13.42;100.00;101934.72;5005079;28;20092;-82
2021/09/03 00:41:17;;;;;;;34.47;27.60;;;;;;;13.41;100.00;101938.41;5005276;28;20045;-82
2021/09/03 00:43:42;;;;;;;34.85;26.30;;;;;;;13.36;100.00;101927.25;4997652;28;20046;-84
2021/09/03 00:46:07;;;;;;;37.55;28.35;;;;;;;13.38;100.00;101927.06;5012601;28;20038;-82
2021/09/03 00:48:33;;;;;;;37.35;27.98;;;;;;;13.35;100.00;101922.00;5005684;28;20068;-81
2021/09/03 00:50:59;;;;;;;36.08;27.17;;;;;;;13.30;100.00;101931.41;5005834;28;20042;-84
2021/09/03 00:53:25;;;;;;;38.15;27.17;;;;;;;13.30;100.00;101931.41;5004982;28;20038;-84
2021/09/03 00:55:51;;;;;;;35.22;27.02;;;;;;;13.27;100.00;101920.94;5006452;28;20038;-82
2021/09/03 00:58:20;;;;;;;35.22;26.88;;;;;;;13.28;100.00;101924.47;4987582;28;20034;-82
2021/09/03 01:00:46;;;;;;;36.17;28.67;;;;;;;13.26;100.00;101924.63;5020860;28;20582;-82
2021/09/03 01:03:11;;;;;;;34.60;28.13;;;;;;;13.21;100.00;101921.53;5005016;28;20044;-83
2021/09/03 01:05:36;;;;;;;39.88;28.70;;;;;;;13.19;100.00;101911.88;4985746;28;20108;-82
2021/09/03 01:08:02;;;;;;;37.53;28.92;;;;;;;13.17;100.00;101917.41;4998491;28;20053;-83
2021/09/03 01:10:27;;;;;;;39.47;29.95;;;;;;;13.18;100.00;101916.44;5004979;28;20121;-84
2021/09/03 01:12:53;;;;;;;40.97;31.13;;;;;;;13.16;100.00;101910.34;5004360;28;20107;-82
2021/09/03 01:15:18;;;;;;;41.90;32.10;;;;;;;13.16;100.00;101907.66;4988323;28;20038;-83
2021/09/03 01:17:44;;;;;;;41.13;30.90;;;;;;;13.11;100.00;101904.56;5004441;28;20042;-84
2021/09/03 01:20:11;;;;;;;40.67;30.80;;;;;;;13.06;100.00;101906.88;5004056;28;20042;-82
2021/09/03 01:22:38;;;;;;;39.53;29.88;;;;;;;13.01;100.00;101903.81;5003748;28;20065;-81
2021/09/03 01:25:04;;;;;;;39.45;29.92;;;;;;;12.98;100.00;101902.25;5002258;28;20074;-82
2021/09/03 01:27:30;;;;;;;42.30;31.17;;;;;;;12.98;100.00;101902.25;5005939;28;20395;-84
2021/09/03 01:29:55;;;;;;;44.60;33.33;;;;;;;12.99;100.00;101895.88;5014388;28;20042;-83
2021/09/03 01:32:21;;;;;;;47.03;33.72;;;;;;;12.96;100.00;101898.03;4985375;28;20037;-83
2021/09/03 01:34:46;;;;;;;51.05;33.38;;;;;;;12.98;100.00;101898.72;5003248;28;20061;-83
2021/09/03 01:37:11;;;;;;;42.70;31.90;;;;;;;12.93;100.00;101895.63;5006002;28;20049;-84
2021/09/03 01:39:37;;;;;;;42.97;31.52;;;;;;;12.91;100.00;101900.31;4988259;28;20487;-83
2021/09/03 01:42:03;;;;;;;44.15;31.42;;;;;;;12.86;100.00;101898.09;5005072;28;20045;-82
2021/09/03 01:44:28;;;;;;;47.03;34.40;;;;;;;12.85;100.00;101889.16;4986940;28;20096;-83
2021/09/03 01:46:54;;;;;;;48.22;34.08;;;;;;;12.88;100.00;101896.09;5003445;28;20038;-82
2021/09/03 01:49:19;;;;;;;45.72;35.47;;;;;;;12.91;100.00;101887.69;5003960;28;20045;-82
2021/09/03 01:51:45;;;;;;;46.13;35.00;;;;;;;12.90;100.00;101894.09;5003565;28;20041;-80
2021/09/03 01:54:10;;;;;;;49.67;36.47;;;;;;;12.91;100.00;101892.25;5005568;28;20376;-83
2021/09/03 01:56:35;;;;;;;46.03;35.15;;;;;;;12.86;100.00;101882.78;5003449;28;20042;-82
2021/09/03 01:59:01;;;;;;;50.40;35.38;;;;;;;12.81;100.00;101877.00;5018641;28;20045;-82
2021/09/03 02:01:26;;;;;;;50.72;36.10;;;;;;;12.77;100.00;101867.50;5004997;28;20114;-82
2021/09/03 02:03:52;;;;;;;54.28;37.33;;;;;;;12.79;100.00;101873.59;5005031;28;20050;-82
2021/09/03 02:06:17;;;;;;;53.42;37.92;;;;;;;12.79;100.00;101868.22;5005248;28;20046;-83
2021/09/03 02:08:42;;;;;;;52.92;35.55;;;;;;;12.71;100.00;101865.44;4986583;28;20034;-81
2021/09/03 02:11:08;;;;;;;53.28;38.10;;;;;;;12.67;100.00;101866.75;5020188;28;20096;-82
2021/09/03 02:13:34;;;;;;;51.33;35.95;;;;;;;12.66;100.00;101857.00;4986151;28;20594;-83
2021/09/03 02:15:59;;;;;;;49.35;37.65;;;;;;;12.65;100.00;101857.97;4999633;28;20331;-81
2021/09/03 02:18:25;;;;;;;56.10;37.53;;;;;;;12.60;100.00;101855.75;5004369;28;20100;-82
2021/09/03 02:20:50;;;;;;;53.17;36.42;;;;;;;12.58;100.00;101854.19;5003425;28;20132;-81
2021/09/03 02:23:15;;;;;;;54.35;37.85;;;;;;;12.53;100.00;101846.56;5003628;28;20038;-81
2021/09/03 02:25:41;;;;;;;54.13;37.35;;;;;;;12.50;100.00;101856.78;4986447;28;20046;-83
2021/09/03 02:28:06;;;;;;;52.03;36.80;;;;;;;12.51;100.00;101850.41;5019663;28;20167;-83
2021/09/03 02:30:32;;;;;;;60.50;42.65;;;;;;;12.54;100.00;101852.78;5014576;28;20507;-83
2021/09/03 02:32:57;;;;;;;52.63;38.38;;;;;;;12.52;100.00;101857.50;5003049;28;20053;-82
2021/09/03 02:35:22;;;;;;;58.15;38.38;;;;;;;12.46;100.00;101850.00;4991925;28;20057;-83
2021/09/03 02:37:48;;;;;;;56.45;39.13;;;;;;;12.49;100.00;101845.19;5004506;28;20054;-84
2021/09/03 02:40:13;;;;;;;57.10;40.10;;;;;;;12.48;100.00;101838.09;5009555;28;20547;-82
2021/09/03 02:42:39;;;;;;;58.92;40.55;;;;;;;12.48;100.00;101839.94;5007909;28;20549;-82
2021/09/03 02:45:05;;;;;;;61.53;42.72;;;;;;;12.46;100.00;101841.94;5007205;28;20046;-83
2021/09/03 02:47:31;;;;;;;54.22;39.70;;;;;;;12.42;100.00;101850.31;5006245;28;20068;-84
2021/09/03 02:49:56;;;;;;;65.13;43.65;;;;;;;12.38;100.00;101843.53;4999265;28;20042;-81
2021/09/03 02:52:21;;;;;;;56.85;40.08;;;;;;;12.39;100.00;101841.69;4999654;28;20415;-81
2021/09/03 02:54:47;;;;;;;59.78;40.00;;;;;;;12.37;100.00;101841.00;5001078;28;20038;-84
2021/09/03 02:57:12;;;;;;;60.15;41.13;;;;;;;12.36;100.00;101844.69;4999475;28;20495;-84
2021/09/03 02:59:37;;;;;;;68.68;43.17;;;;;;;12.41;100.00;101837.00;5000572;28;20041;-83
2021/09/03 03:02:03;;;;;;;61.17;42.85;;;;;;;12.44;100.00;101835.88;5000502;28;20045;-83
2021/09/03 03:04:28;;;;;;;65.65;42.58;;;;;;;12.44;100.00;101844.78;4997559;28;20030;-83
2021/09/03 03:06:54;;;;;;;59.67;42.95;;;;;;;12.42;100.00;101834.16;4984389;28;20507;-82
2021/09/03 03:09:19;;;;;;;57.67;43.97;;;;;;;12.42;100.00;101834.16;4987057;28;20041;-83
2021/09/03 03:11:44;;;;;;;60.30;42.38;;;;;;;12.40;100.00;101833.47;4997151;28;20050;-83
2021/09/03 03:14:26;;;;;;;66.90;43.75;;;;;;;12.34;100.00;101831.41;4996722;28;20051;-82
2021/09/03 03:16:54;;;;;;;73.43;48.90;;;;;;;12.37;100.00;101830.22;4983822;28;20037;-81
2021/09/03 03:19:20;;;;;;;65.40;44.20;;;;;;;12.35;100.00;101832.25;5018080;28;20060;-82
2021/09/03 03:21:45;;;;;;;67.93;45.50;;;;;;;12.36;100.00;101825.84;4995450;28;20125;-83
2021/09/03 03:24:10;;;;;;;64.70;45.75;;;;;;;12.36;100.00;101818.63;4981999;28;20491;-81
2021/09/03 03:26:36;;;;;;;65.70;45.75;;;;;;;12.34;100.00;101815.25;4984635;28;20220;-83
2021/09/03 03:29:01;;;;;;;67.15;45.90;;;;;;;12.36;100.00;101801.63;4996168;28;20054;-81
2021/09/03 03:31:31;;;;;;;71.38;45.22;;;;;;;12.36;100.00;101807.00;5002347;28;20129;-83
2021/09/03 03:33:57;;;;;;;74.63;46.75;;;;;;;12.35;100.00;101808.84;5003481;28;20038;-84
2021/09/03 03:36:22;;;;;;;70.63;45.72;;;;;;;12.34;100.00;101804.47;4997634;28;20099;-83
2021/09/03 03:38:47;;;;;;;70.78;47.47;;;;;;;12.34;100.00;101806.31;4985474;28;20250;-82
2021/09/03 03:41:13;;;;;;;70.03;47.10;;;;;;;12.32;100.00;101800.25;5001571;28;20118;-84
2021/09/03 03:43:38;;;;;;;79.25;49.30;;;;;;;12.31;100.00;101791.28;5005080;28;20052;-82
2021/09/03 03:46:03;;;;;;;70.57;47.22;;;;;;;12.30;100.00;101797.69;5003533;28;20349;-81
2021/09/03 03:48:29;;;;;;;70.18;46.00;;;;;;;12.30;100.00;101796.84;4996715;28;20057;-82
2021/09/03 03:50:54;;;;;;;75.32;49.15;;;;;;;12.31;100.00;101796.69;5009545;28;20037;-81
2021/09/03 03:53:20;;;;;;;72.95;47.47;;;;;;;12.21;100.00;101792.38;4998218;28;20077;-84
2021/09/03 03:55:46;;;;;;;80.40;48.30;;;;;;;12.25;100.00;101791.91;4997765;28;20038;-84
2021/09/03 03:58:11;;;;;;;73.10;49.63;;;;;;;12.25;100.00;101789.22;5000193;28;20053;-80
2021/09/03 04:00:36;;;;;;;74.43;48.25;;;;;;;12.22;100.00;101789.50;5003748;28;20120;-80
2021/09/03 04:03:02;;;;;;;71.85;47.47;;;;;;;12.23;100.00;101790.34;5001651;28;20034;-81
2021/09/03 04:05:27;;;;;;;72.63;45.75;;;;;;;12.12;100.00;101783.34;5009565;28;20038;-81
2021/09/03 04:07:52;;;;;;;75.95;46.50;;;;;;;12.12;100.00;101780.66;4991145;28;20050;-84
2021/09/03 04:10:18;;;;;;;70.05;44.80;;;;;;;12.11;100.00;101793.28;4995448;28;20137;-81
2021/09/03 04:12:44;;;;;;;76.38;47.67;;;;;;;12.12;100.00;101791.44;5000023;28;20054;-84
2021/09/03 04:15:10;;;;;;;85.03;49.60;;;;;;;12.10;100.00;101778.13;4980052;28;20054;-82
2021/09/03 04:17:35;;;;;;;79.25;46.92;;;;;;;12.09;100.00;101789.03;5005158;28;20574;-83
2021/09/03 04:20:00;;;;;;;82.03;48.42;;;;;;;12.08;100.00;101792.72;4971088;28;20052;-84
2021/09/03 04:22:26;;;;;;;76.85;47.30;;;;;;;12.06;100.00;101789.34;4999623;28;20034;-84
2021/09/03 04:24:51;;;;;;;74.40;46.58;;;;;;;12.05;100.00;101790.31;4993116;28;20033;-82
2021/09/03 04:27:16;;;;;;;80.72;47.30;;;;;;;12.04;100.00;101794.03;4994962;28;20056;-84
2021/09/03 04:29:42;;;;;;;84.28;48.78;;;;;;;11.99;100.00;101788.22;4995766;28;20267;-82
2021/09/03 04:32:07;;;;;;;81.25;49.03;;;;;;;11.94;100.00;101791.38;4990844;28;20077;-85
2021/09/03 04:34:32;;;;;;;80.45;48.15;;;;;;;11.98;100.00;101787.38;4994164;28;20327;-84
2021/09/03 04:36:58;;;;;;;73.63;48.58;;;;;;;11.95;100.00;101785.84;4989375;28;20153;-84
2021/09/03 04:39:23;;;;;;;76.70;49.25;;;;;;;11.98;100.00;101786.56;4992017;28;20404;-82
2021/09/03 04:41:48;;;;;;;82.30;50.42;;;;;;;11.97;100.00;101785.72;4993700;28;20042;-84
2021/09/03 04:44:14;;;;;;;84.13;50.33;;;;;;;11.93;100.00;101785.13;4994503;28;20033;-85
2021/09/03 04:46:39;;;;;;;80.22;50.08;;;;;;;11.91;100.00;101787.16;4986113;28;20048;-82
2021/09/03 04:49:05;;;;;;;82.55;49.90;;;;;;;11.90;100.00;101776.53;4994814;28;20503;-84
2021/09/03 04:51:30;;;;;;;81.40;48.03;;;;;;;11.87;100.00;101780.34;4997396;28;20436;-84
2021/09/03 04:53:55;;;;;;;80.65;45.92;;;;;;;11.83;100.00;101780.78;4987590;28;20050;-84
2021/09/03 04:56:22;;;;;;;78.60;46.20;;;;;;;11.79;100.00;101782.06;4996011;28;20041;-83
2021/09/03 04:58:47;;;;;;;75.80;46.50;;;;;;;11.78;100.00;101783.06;4978873;28;20395;-83
2021/09/03 05:01:12;;;;;;;81.65;49.40;;;;;;;11.76;100.00;101785.88;4994750;28;20128;-81
2021/09/03 05:03:38;;;;;;;77.30;46.22;;;;;;;11.75;100.00;101781.53;4998790;28;20054;-85
2021/09/03 05:06:03;;;;;;;81.57;46.88;;;;;;;11.75;100.00;101782.34;4996049;28;20387;-83
2021/09/03 05:08:28;;;;;;;83.80;50.05;;;;;;;11.79;100.00;101776.69;4975518;28;20042;-85
2021/09/03 05:10:54;;;;;;;79.05;49.70;;;;;;;11.80;100.00;101778.41;4996093;28;20415;-84
2021/09/03 05:13:19;;;;;;;82.30;49.05;;;;;;;11.78;100.00;101775.84;4994724;28;20123;-83
2021/09/03 05:15:45;;;;;;;80.75;48.22;;;;;;;11.78;100.00;101778.53;4996915;28;20038;-84
2021/09/03 05:18:10;;;;;;;88.75;50.60;;;;;;;11.83;100.00;101778.94;4997074;28;20506;-84
2021/09/03 05:20:36;;;;;;;80.53;49.30;;;;;;;11.82;100.00;101776.38;4984902;28;20048;-84
2021/09/03 05:23:01;;;;;;;86.97;49.53;;;;;;;11.82;100.00;101776.38;4999919;28;20034;-83
2021/09/03 05:25:27;;;;;;;84.05;48.50;;;;;;;11.81;100.00;101782.78;5002960;28;20112;-82
2021/09/03 05:27:52;;;;;;;82.93;50.30;;;;;;;11.81;100.00;101782.78;4996536;28;20046;-84
2021/09/03 05:30:18;;;;;;;84.00;50.40;;;;;;;11.86;100.00;101789.44;4994148;28;20053;-82
2021/09/03 05:32:44;;;;;;;84.38;48.67;;;;;;;11.86;100.00;101780.53;4989557;28;20495;-84
2021/09/03 05:35:10;;;;;;;85.65;49.05;;;;;;;11.84;100.00;101791.38;4981655;28;20045;-85
2021/09/03 05:37:36;;;;;;;85.50;47.50;;;;;;;11.86;100.00;101785.91;4999007;28;20041;-84
2021/09/03 05:40:04;;;;;;;85.00;50.08;;;;;;;11.91;100.00;101787.16;4998782;28;20042;-83
2021/09/03 05:42:29;;;;;;;85.70;49.10;;;;;;;11.91;100.00;101786.28;4990759;28;20049;-84
2021/09/03 05:44:54;;;;;;;83.57;48.25;;;;;;;11.92;100.00;101788.84;4998893;28;20045;-84
2021/09/03 05:47:20;;;;;;;85.85;48.70;;;;;;;11.99;100.00;101789.06;4997287;28;20049;-83
2021/09/03 05:49:45;;;;;;;82.55;47.40;;;;;;;12.01;100.00;101799.69;4998555;28;20042;-85
2021/09/03 05:52:11;;;;;;;84.85;48.45;;;;;;;12.02;100.00;101788.78;5009218;28;20042;-82
2021/09/03 05:54:36;;;;;;;86.60;48.33;;;;;;;12.07;100.00;101786.50;4996605;28;20052;-84
2021/09/03 05:57:04;;;;;;;82.22;46.42;;;;;;;12.07;100.00;101781.09;4988313;28;20038;-84
2021/09/03 05:59:29;;;;;;;87.00;49.70;;;;;;;12.14;100.00;101789.41;5013764;28;20073;-82
2021/09/03 06:01:55;;;;;;;87.72;51.03;;;;;;;12.19;100.00;101793.34;4998148;28;20081;-82
2021/09/03 06:04:20;;;;;;;87.10;48.67;;;;;;;12.22;100.00;101784.13;5001423;28;20060;-82
2021/09/03 06:06:45;;;;;;;84.68;48.47;;;;;;;12.27;100.00;101787.22;4995627;28;20073;-84
2021/09/03 06:09:11;;;;;;;83.10;48.88;;;;;;;12.32;100.00;101779.56;4996006;28;20042;-85
2021/09/03 06:11:36;;;;;;;82.20;47.97;;;;;;;12.34;100.00;101779.38;5004101;28;20125;-84
2021/09/03 06:14:01;;;;;;;86.22;46.53;;;;;;;12.34;100.00;101788.34;4992394;28;20073;-82
2021/09/03 06:16:27;;;;;;;84.38;49.17;;;;;;;12.40;100.00;101781.50;4996385;28;20075;-83
2021/09/03 06:18:52;;;;;;;78.50;48.42;;;;;;;12.49;100.00;101782.44;4996299;28;20133;-84
2021/09/03 06:21:18;;;;;;;76.07;45.92;;;;;;;12.54;100.00;101782.78;5011925;28;20401;-84
2021/09/03 06:23:44;;;;;;;82.53;47.05;;;;;;;12.60;100.00;101782.16;4994010;28;20191;-82
2021/09/03 06:26:09;;;;;;;76.10;45.50;;;;;;;12.64;100.00;101772.81;4998514;28;20088;-82
2021/09/03 06:28:35;;;;;;;77.07;47.38;;;;;;;12.70;100.00;101774.88;4996251;28;20050;-85
2021/09/03 06:31:00;;;;;;;84.65;46.40;;;;;;;12.76;100.00;101778.81;4992082;28;20046;-83
2021/09/03 06:33:25;;;;;;;80.88;48.38;;;;;;;12.79;100.00;101782.03;5008105;28;20050;-84
2021/09/03 06:35:51;;;;;;;75.53;45.75;;;;;;;12.84;100.00;101776.19;4986496;28;20117;-83
2021/09/03 06:38:16;;;;;;;76.85;46.40;;;;;;;12.95;100.00;101786.72;4982491;28;20484;-84
2021/09/03 06:40:42;;;;;;;81.18;47.90;;;;;;;13.01;100.00;101790.66;4998281;28;20069;-83
2021/09/03 06:43:07;;;;;;;76.97;47.20;;;;;;;13.10;100.00;101784.31;5011330;28;20041;-82
2021/09/03 06:45:32;;;;;;;74.82;45.50;;;;;;;13.17;100.00;101785.34;4994056;28;20293;-83
2021/09/03 06:47:58;;;;;;;70.20;44.72;;;;;;;13.26;100.00;101786.28;4992148;28;20433;-81
2021/09/03 06:50:23;;;;;;;72.38;46.10;;;;;;;13.33;100.00;101779.28;4987425;28;20057;-83
2021/09/03 06:52:49;;;;;;;70.40;43.05;;;;;;;13.40;100.00;101780.31;4989846;28;20080;-84
2021/09/03 06:55:15;;;;;;;73.53;44.95;;;;;;;13.45;100.00;101785.25;4996236;28;20053;-82
2021/09/03 06:57:42;;;;;;;65.65;43.00;;;;;;;13.56;100.00;101782.28;4997069;28;20045;-84
2021/09/03 07:00:09;;;;;;;67.57;42.92;;;;;;;13.61;100.00;101782.66;4992132;28;20108;-82
2021/09/03 07:02:34;;;;;;;66.72;42.17;;;;;;;13.69;100.00;101788.06;4998141;28;20491;-85
2021/09/03 07:05:01;;;;;;;58.30;40.50;;;;;;;13.77;100.00;101785.44;4999824;28;20072;-85
2021/09/03 07:07:26;;;;;;;57.92;38.90;;;;;;;13.87;100.00;101784.47;4996266;28;20061;-82
2021/09/03 07:09:55;;;;;;;60.05;40.72;;;;;;;13.94;100.00;101789.06;4989151;28;20419;-82
2021/09/03 07:12:22;;;;;;;63.58;39.45;;;;;;;14.05;100.00;101790.63;4994974;28;20050;-81
2021/09/03 07:14:47;;;;;;;60.05;39.50;;;;;;;14.16;100.00;101790.31;4970903;28;20049;-84
2021/09/03 07:17:12;;;;;;;60.55;38.22;;;;;;;14.22;100.00;101781.56;4965908;28;20038;-82
2021/09/03 07:19:38;;;;;;;53.30;36.58;;;;;;;14.31;100.00;101778.91;4997788;28;20038;-84
2021/09/03 07:22:04;;;;;;;54.33;35.92;;;;;;;14.43;100.00;101774.88;4996689;28;20116;-83
2021/09/03 07:24:30;;;;;;;55.88;36.72;;;;;;;14.51;100.00;101774.06;4996984;28;20076;-84
2021/09/03 07:26:56;;;;;;;55.22;36.97;;;;;;;14.59;100.00;101771.41;4999243;28;20115;-85
2021/09/03 07:29:22;;;;;;;51.63;36.35;;;;;;;14.71;100.00;101771.91;5000186;28;20084;-84
2021/09/03 07:31:47;;;;;;;49.25;33.80;;;;;;;14.83;100.00;101770.56;5015898;28;20141;-85
2021/09/03 07:34:12;;;;;;;47.80;33.53;;;;;;;14.87;100.00;101766.50;4996063;28;20149;-82
2021/09/03 07:36:38;;;;;;;48.53;31.98;;;;;;;14.95;100.00;101761.09;5016413;28;20050;-83
2021/09/03 07:39:04;;;;;;;48.10;33.28;;;;;;;15.09;100.00;101760.41;4986260;28;20200;-82
2021/09/03 07:41:29;;;;;;;42.65;30.77;;;;;;;15.21;100.00;101760.06;5013256;28;20041;-85
2021/09/03 07:43:55;;;;;;;43.28;30.45;;;;;;;15.27;100.00;101753.97;4996339;28;20398;-83
2021/09/03 07:46:20;;;;;;;44.17;30.73;;;;;;;15.39;100.00;101767.97;5011577;28;20050;-84
2021/09/03 07:48:46;;;;;;;42.92;29.13;;;;;;;15.48;100.00;101766.97;5005467;28;20199;-84
2021/09/03 07:51:11;;;;;;;42.67;29.83;;;;;;;15.58;98.70;101767.59;4997262;28;20524;-84
2021/09/03 07:53:36;;;;;;;42.58;28.35;;;;;;;15.67;99.26;101765.72;5000590;28;20095;-83
2021/09/03 07:56:03;;;;;;;40.38;28.10;;;;;;;15.77;98.80;101759.13;4983328;28;20194;-81
2021/09/03 07:58:29;;;;;;;35.30;27.45;;;;;;;15.87;97.79;101756.19;4985364;28;20038;-86
2021/09/03 08:00:54;;;;;;;38.58;27.40;;;;;;;16.00;98.14;101756.47;5001639;28;20049;-83
2021/09/03 08:03:20;;;;;;;41.60;26.45;;;;;;;16.09;97.26;101762.69;4998324;28;20414;-83
2021/09/03 08:05:45;;;;;;;37.83;25.67;;;;;;;16.19;96.84;101759.75;4997757;28;20049;-82
2021/09/03 08:08:11;;;;;;;37.67;26.27;;;;;;;16.35;97.43;101765.09;4997433;28;20556;-84
2021/09/03 08:10:37;;;;;;;39.20;24.88;;;;;;;16.50;95.21;101761.59;5013045;28;20046;-83
2021/09/03 08:13:04;;;;;;;31.95;25.80;;;;;;;16.53;94.07;101761.25;4998399;28;20058;-86
2021/09/03 08:15:31;;;;;;;34.85;23.98;;;;;;;16.60;95.66;101754.94;5011324;28;20577;-83
2021/09/03 08:17:57;;;;;;;30.13;22.88;;;;;;;16.73;92.16;101756.19;5008028;28;20046;-83
2021/09/03 08:20:23;;;;;;;33.65;23.27;;;;;;;16.84;91.96;101759.34;4998394;28;20046;-84
2021/09/03 08:22:50;;;;;;;32.97;23.30;;;;;;;16.88;93.09;101766.06;4996041;28;20279;-83
2021/09/03 08:25:16;;;;;;;31.73;23.20;;;;;;;16.97;93.30;101766.84;4997266;28;20065;-83
2021/09/03 08:27:41;;;;;;;30.73;22.95;;;;;;;17.05;91.15;101761.34;4980105;28;20091;-82
2021/09/03 08:30:08;;;;;;;30.20;22.92;;;;;;;17.22;91.83;101762.06;4996975;28;20080;-85
2021/09/03 08:32:33;;;;;;;33.17;22.50;;;;;;;17.27;90.86;101759.63;5000029;28;20042;-85
2021/09/03 08:34:59;;;;;;;31.45;21.95;;;;;;;17.39;92.26;101760.03;5002621;28;20034;-83
2021/09/03 08:37:25;;;;;;;29.30;21.67;;;;;;;17.53;90.99;101755.63;5005197;28;20034;-82
2021/09/03 08:39:50;;;;;;;28.38;19.65;;;;;;;17.58;90.02;101750.50;5004912;28;20395;-82
2021/09/03 08:42:17;;;;;;;24.27;18.92;;;;;;;17.74;89.53;101746.72;5006900;28;20100;-87
2021/09/03 08:44:44;;;;;;;29.38;19.58;;;;;;;17.89;89.86;101753.00;5005317;28;20038;-85
2021/09/03 08:47:10;;;;;;;23.65;18.05;;;;;;;17.94;88.55;101747.03;4992366;28;20275;-84
2021/09/03 08:49:35;;;;;;;24.88;18.25;;;;;;;18.07;88.04;101755.34;5005444;28;20398;-85
2021/09/03 08:52:00;;;;;;;24.63;17.85;;;;;;;18.16;86.66;101751.47;5001218;28;20034;-86
2021/09/03 08:54:26;;;;;;;23.98;16.58;;;;;;;18.25;86.03;101747.59;4996329;28;20046;-83
2021/09/03 08:56:51;;;;;;;24.27;16.98;;;;;;;18.32;84.67;101746.84;5003061;28;20042;-85
2021/09/03 08:59:17;;;;;;;23.02;16.65;;;;;;;18.38;85.87;101751.50;4988968;28;20041;-83
2021/09/03 09:01:42;;;;;;;20.90;16.02;;;;;;;18.51;83.77;101751.66;5002027;28;20046;-86
2021/09/03 09:04:11;;;;;;;22.00;15.43;;;;;;;18.55;84.64;101750.22;4989566;28;20038;-83
2021/09/03 09:06:36;;;;;;;20.95;15.75;;;;;;;18.54;83.68;101751.25;5006470;28;20494;-83
2021/09/03 09:09:04;;;;;;;20.20;15.77;;;;;;;18.60;83.82;101750.47;5002875;28;20122;-85
2021/09/03 09:11:31;;;;;;;20.65;14.40;;;;;;;18.72;84.56;101750.78;5006334;28;20210;-83
2021/09/03 09:14:04;;;;;;;23.77;16.42;;;;;;;18.76;84.12;101751.28;5004237;28;20248;-85
2021/09/03 09:16:32;;;;;;;23.92;15.77;;;;;;;18.89;84.53;101748.69;5021438;28;20476;-86
2021/09/03 09:19:05;;;;;;;22.20;15.40;;;;;;;19.01;84.45;101746.28;5003110;28;20091;-81
2021/09/03 09:21:35;;;;;;;20.70;15.38;;;;;;;19.03;82.06;101749.66;5021626;28;20275;-84
2021/09/03 09:24:07;;;;;;;19.63;14.85;;;;;;;19.15;83.52;101753.50;5005247;28;20041;-83
2021/09/03 09:26:46;;;;;;;23.10;14.75;;;;;;;19.30;82.33;101756.13;5004317;28;20037;-86
2021/09/03 09:29:16;;;;;;;22.75;14.50;;;;;;;19.31;82.10;101742.31;5003871;28;20041;-84
2021/09/03 09:31:43;;;;;;;19.40;13.30;;;;;;;19.41;82.16;101747.41;5006228;28;20052;-83
2021/09/03 09:34:20;;;;;;;21.98;14.40;;;;;;;19.47;81.71;101751.22;5004065;28;20411;-85
2021/09/03 09:36:48;;;;;;;19.98;13.52;;;;;;;19.51;81.72;101753.34;4990757;28;20145;-83
2021/09/03 09:39:15;;;;;;;23.50;15.35;;;;;;;19.65;83.17;101739.78;5004420;28;20203;-83
2021/09/03 09:41:44;;;;;;;19.35;14.07;;;;;;;19.70;81.74;101740.91;5004524;28;20048;-87
2021/09/03 09:44:11;;;;;;;22.05;15.32;;;;;;;19.74;80.33;101739.47;4996578;28;20053;-83
2021/09/03 09:47:06;;;;;;;20.10;15.43;;;;;;;19.78;80.44;101743.44;5002808;28;20095;-85
2021/09/03 09:49:32;;;;;;;23.60;15.13;;;;;;;19.92;81.34;101740.81;4987771;28;20041;-85
2021/09/03 09:51:57;;;;;;;20.13;15.38;;;;;;;19.93;79.51;101732.41;5004574;28;20053;-84
2021/09/03 09:54:25;;;;;;;17.50;13.85;;;;;;;20.04;80.82;101736.44;4987024;28;20048;-84
2021/09/03 09:56:53;;;;;;;21.92;14.73;;;;;;;20.09;79.13;101733.94;5020250;28;20180;-85
2021/09/03 09:59:23;;;;;;;18.47;13.30;;;;;;;20.09;78.87;101730.38;5004002;28;20129;-84
2021/09/03 10:01:51;;;;;;;18.55;13.50;;;;;;;20.14;79.85;101731.47;5003762;28;20281;-83
2021/09/03 10:04:19;;;;;;;18.17;12.32;;;;;;;20.24;78.42;101725.59;4987209;28;20041;-83
2021/09/03 10:06:47;;;;;;;19.97;12.30;;;;;;;20.32;78.80;101727.31;5003949;28;20090;-86
2021/09/03 10:09:14;;;;;;;16.88;12.38;;;;;;;20.33;77.11;101729.81;5003723;28;20249;-86
2021/09/03 10:11:43;;;;;;;17.40;12.23;;;;;;;20.45;77.45;101733.59;5005535;28;20396;-86
2021/09/03 10:14:10;;;;;;;18.35;12.57;;;;;;;20.44;77.04;101739.28;4987673;28;20046;-85
2021/09/03 10:16:36;;;;;;;17.77;12.05;;;;;;;20.49;77.06;101731.31;5001356;28;20046;-86
2021/09/03 10:19:05;;;;;;;18.15;13.52;;;;;;;20.52;77.08;101730.91;5003393;28;20034;-87
2021/09/03 10:21:31;;;;;;;21.75;12.95;;;;;;;20.69;78.07;101721.31;4987555;28;20038;-87
2021/09/03 10:24:23;;;;;;;18.17;12.95;;;;;;;20.82;77.40;101725.91;5004645;28;20388;-86
2021/09/03 10:26:50;;;;;;;16.52;12.43;;;;;;;20.92;77.66;101718.16;5004410;28;20240;-84
2021/09/03 10:29:35;;;;;;;17.83;11.52;;;;;;;20.87;75.69;101709.78;5004326;28;20053;-85
2021/09/03 10:32:03;;;;;;;17.02;10.88;;;;;;;20.99;75.37;101722.78;5003263;28;20041;-83
2021/09/03 10:34:51;;;;;;;19.17;12.77;;;;;;;21.05;74.95;101720.03;5002946;28;20546;-86
2021/09/03 10:37:17;;;;;;;16.10;13.30;;;;;;;21.06;73.56;101718.16;5019440;28;20042;-85
2021/09/03 10:39:46;;;;;;;16.90;11.70;;;;;;;21.09;75.64;101717.72;5005239;28;20036;-85
2021/09/03 10:42:34;;;;;;;19.42;12.90;;;;;;;21.14;75.63;101726.13;5003118;28;20084;-86
2021/09/03 10:45:03;;;;;;;16.77;11.88;;;;;;;21.26;75.69;101709.94;5001650;28;20584;-84
2021/09/03 10:48:12;;;;;;;18.50;12.27;;;;;;;21.40;75.33;101715.16;5016690;28;20050;-83
2021/09/03 10:50:46;;;;;;;16.23;11.43;;;;;;;21.49;75.04;101709.50;4983078;28;20376;-88
2021/09/03 10:53:13;;;;;;;18.60;11.25;;;;;;;21.50;73.86;101701.09;4988784;28;20785;-86
2021/09/03 10:55:52;;;;;;;20.05;13.40;;;;;;;21.60;73.26;101700.63;4994172;28;20424;-82
2021/09/03 10:58:36;;;;;;;17.88;11.43;;;;;;;21.64;75.20;101693.69;4999291;28;20050;-83
2021/09/03 11:01:10;;;;;;;17.25;13.07;;;;;;;;;;4998950;28;20052;-86